createdAt,value
2019-03-21T00:00:50.493Z,0.00
2019-03-21T00:01:50.486Z,0.00
2019-03-21T00:02:50.470Z,0.00
2019-03-21T00:03:50.459Z,0.00
2019-03-21T00:04:50.476Z,0.00
2019-03-21T00:05:50.444Z,0.00
2019-03-21T00:06:50.453Z,0.00
2019-03-21T00:07:50.435Z,0.00
2019-03-21T00:08:50.410Z,0.00
2019-03-21T00:09:50.398Z,0.00
2019-03-21T00:10:50.398Z,0.00
2019-03-21T00:11:50.371Z,0.00
2019-03-21T00:12:50.362Z,0.00
2019-03-21T00:13:50.358Z,0.00
2019-03-21T00:14:50.367Z,0.00
2019-03-21T00:15:50.338Z,0.00
2019-03-21T00:16:50.323Z,0.00
2019-03-21T00:17:50.309Z,0.00
2019-03-21T00:18:50.298Z,0.00
2019-03-21T00:19:50.292Z,0.00
2019-03-21T00:20:50.298Z,0.00
2019-03-21T00:21:50.269Z,0.00
2019-03-21T00:22:50.256Z,0.00
2019-03-21T00:23:50.242Z,0.00
2019-03-21T00:24:50.235Z,0.00
2019-03-21T00:25:50.236Z,0.00
2019-03-21T00:26:50.216Z,0.00
2019-03-21T00:27:50.208Z,0.00
2019-03-21T00:28:50.196Z,0.00
2019-03-21T00:29:50.182Z,0.00
2019-03-21T00:30:50.169Z,0.00
2019-03-21T00:31:50.159Z,0.00
2019-03-21T00:32:50.178Z,0.00
2019-03-21T00:33:50.135Z,0.00
2019-03-21T00:34:50.128Z,0.00
2019-03-21T00:35:50.115Z,0.00
2019-03-21T00:36:50.100Z,0.00
2019-03-21T00:37:50.105Z,0.00
2019-03-21T00:38:50.080Z,0.00
2019-03-21T00:39:50.077Z,0.00
2019-03-21T00:40:50.063Z,0.00
2019-03-21T00:41:50.059Z,0.00
2019-03-21T00:42:50.050Z,0.00
2019-03-21T00:43:50.027Z,0.00
2019-03-21T00:44:50.019Z,0.00
2019-03-21T00:45:50.004Z,0.00
2019-03-21T00:46:50.037Z,0.00
2019-03-21T00:47:49.980Z,0.00
2019-03-21T00:48:49.969Z,0.00
2019-03-21T00:49:49.964Z,0.00
2019-03-21T00:50:49.953Z,0.00
2019-03-21T00:51:49.942Z,0.00
2019-03-21T00:52:49.947Z,0.00
2019-03-21T00:53:49.916Z,0.00
2019-03-21T00:54:49.910Z,0.00
2019-03-21T00:55:49.896Z,0.00
2019-03-21T00:56:49.884Z,0.00
2019-03-21T00:57:49.914Z,0.00
2019-03-21T00:58:49.874Z,0.00
2019-03-21T00:59:49.858Z,0.00
2019-03-21T01:00:49.844Z,0.00
2019-03-21T01:01:49.829Z,0.00
2019-03-21T01:02:49.824Z,0.00
2019-03-21T01:03:49.825Z,0.00
2019-03-21T01:04:49.801Z,0.00
2019-03-21T01:05:49.784Z,0.00
2019-03-21T01:06:49.782Z,0.00
2019-03-21T01:07:49.768Z,0.00
2019-03-21T01:08:49.781Z,0.00
2019-03-21T01:09:49.750Z,0.00
2019-03-21T01:10:49.745Z,0.00
2019-03-21T01:11:49.723Z,0.00
2019-03-21T01:12:49.708Z,0.00
2019-03-21T01:13:49.706Z,0.00
2019-03-21T01:14:49.692Z,0.00
2019-03-21T01:15:49.698Z,0.00
2019-03-21T01:16:49.670Z,0.00
2019-03-21T01:17:49.654Z,0.00
2019-03-21T01:18:49.664Z,0.00
2019-03-21T01:19:49.649Z,0.00
2019-03-21T01:20:49.632Z,0.00
2019-03-21T01:21:49.614Z,0.00
2019-03-21T01:22:49.603Z,0.00
2019-03-21T01:23:49.594Z,0.00
2019-03-21T01:24:49.715Z,0.00
2019-03-21T01:25:49.572Z,0.00
2019-03-21T01:26:49.567Z,0.00
2019-03-21T01:27:49.546Z,0.00
2019-03-21T01:28:49.535Z,0.00
2019-03-21T01:29:49.527Z,0.00
2019-03-21T01:30:49.533Z,0.00
2019-03-21T01:31:49.540Z,0.00
2019-03-21T01:32:49.498Z,0.00
2019-03-21T01:33:49.484Z,0.00
2019-03-21T01:34:49.473Z,0.00
2019-03-21T01:35:49.470Z,0.00
2019-03-21T01:36:49.457Z,0.00
2019-03-21T01:37:49.448Z,0.00
2019-03-21T01:38:49.452Z,0.00
2019-03-21T01:39:49.419Z,0.00
2019-03-21T01:40:49.463Z,0.00
2019-03-21T01:41:49.393Z,0.00
2019-03-21T01:42:49.387Z,0.00
2019-03-21T01:43:49.381Z,0.00
2019-03-21T01:44:49.364Z,0.00
2019-03-21T01:45:49.349Z,0.00
2019-03-21T01:46:49.356Z,0.00
2019-03-21T01:47:49.327Z,0.00
2019-03-21T01:48:49.323Z,0.00
2019-03-21T01:49:49.310Z,0.00
2019-03-21T01:50:49.296Z,0.00
2019-03-21T01:51:49.295Z,0.00
2019-03-21T01:52:49.279Z,0.00
2019-03-21T01:53:49.267Z,0.00
2019-03-21T01:54:49.275Z,0.00
2019-03-21T01:55:49.254Z,0.00
2019-03-21T01:56:49.254Z,0.00
2019-03-21T01:57:49.218Z,0.00
2019-03-21T01:58:49.212Z,0.00
2019-03-21T01:59:49.235Z,0.00
2019-03-21T02:00:49.193Z,0.00
2019-03-21T02:01:49.254Z,0.00
2019-03-21T02:02:49.162Z,0.00
2019-03-21T02:03:49.157Z,0.00
2019-03-21T02:04:49.155Z,0.00
2019-03-21T02:05:49.134Z,0.00
2019-03-21T02:06:49.120Z,0.00
2019-03-21T02:07:49.141Z,0.00
2019-03-21T02:08:49.097Z,0.00
2019-03-21T02:09:49.091Z,0.00
2019-03-21T02:10:49.075Z,0.00
2019-03-21T02:11:49.069Z,0.00
2019-03-21T02:12:49.064Z,0.00
2019-03-21T02:13:49.048Z,0.00
2019-03-21T02:14:52.370Z,0.00
2019-03-21T02:15:50.768Z,0.00
2019-03-21T02:16:49.033Z,0.00
2019-03-21T02:17:49.026Z,0.00
2019-03-21T02:18:48.991Z,0.00
2019-03-21T02:19:48.992Z,0.00
2019-03-21T02:20:48.976Z,0.00
2019-03-21T02:21:48.954Z,0.00
2019-03-21T02:22:48.956Z,0.00
2019-03-21T02:23:48.941Z,0.00
2019-03-21T02:24:48.928Z,0.00
2019-03-21T02:25:48.909Z,0.00
2019-03-21T02:26:48.903Z,0.00
2019-03-21T02:27:48.904Z,0.00
2019-03-21T02:28:48.884Z,0.00
2019-03-21T02:29:48.866Z,0.00
2019-03-21T02:30:48.885Z,0.00
2019-03-21T02:31:48.843Z,0.00
2019-03-21T02:32:48.881Z,0.00
2019-03-21T02:33:48.824Z,0.00
2019-03-21T02:34:48.811Z,0.00
2019-03-21T02:35:48.802Z,0.00
2019-03-21T02:36:48.798Z,0.00
2019-03-21T02:37:48.783Z,0.00
2019-03-21T02:38:48.843Z,0.00
2019-03-21T02:39:59.500Z,0.00
2019-03-21T02:40:49.765Z,0.00
2019-03-21T02:41:48.740Z,0.00
2019-03-21T02:42:48.728Z,0.00
2019-03-21T02:43:48.718Z,0.00
2019-03-21T02:44:48.801Z,0.00
2019-03-21T02:45:48.709Z,0.00
2019-03-21T02:46:48.684Z,0.00
2019-03-21T02:47:48.675Z,0.00
2019-03-21T02:48:48.673Z,0.00
2019-03-21T02:49:48.670Z,0.00
2019-03-21T02:50:48.654Z,0.00
2019-03-21T02:51:48.635Z,0.00
2019-03-21T02:52:48.616Z,0.00
2019-03-21T02:53:48.682Z,0.00
2019-03-21T02:54:48.602Z,0.00
2019-03-21T02:55:48.595Z,0.00
2019-03-21T02:56:48.593Z,0.00
2019-03-21T02:57:48.567Z,0.00
2019-03-21T02:58:48.554Z,0.00
2019-03-21T02:59:48.544Z,0.00
2019-03-21T03:00:48.541Z,0.00
2019-03-21T03:01:48.531Z,0.00
2019-03-21T03:02:48.507Z,0.00
2019-03-21T03:03:48.503Z,0.00
2019-03-21T03:04:48.501Z,0.00
2019-03-21T03:05:48.474Z,0.00
2019-03-21T03:06:48.515Z,0.00
2019-03-21T03:07:48.463Z,0.00
2019-03-21T03:08:48.446Z,0.00
2019-03-21T03:09:48.441Z,0.00
2019-03-21T03:10:48.424Z,0.00
2019-03-21T03:11:48.419Z,0.00
2019-03-21T03:12:48.422Z,0.00
2019-03-21T03:13:48.409Z,0.00
2019-03-21T03:14:48.401Z,0.00
2019-03-21T03:15:48.369Z,0.00
2019-03-21T03:16:48.354Z,0.00
2019-03-21T03:17:48.357Z,0.00
2019-03-21T03:18:48.356Z,0.00
2019-03-21T03:19:48.336Z,0.00
2019-03-21T03:20:48.324Z,0.00
2019-03-21T03:21:48.307Z,0.00
2019-03-21T03:22:48.290Z,0.00
2019-03-21T03:23:48.346Z,0.00
2019-03-21T03:24:48.283Z,0.00
2019-03-21T03:25:50.941Z,0.00
2019-03-21T03:26:48.253Z,0.00
2019-03-21T03:27:48.242Z,0.00
2019-03-21T03:28:48.228Z,0.00
2019-03-21T03:29:48.252Z,0.00
2019-03-21T03:30:48.213Z,0.00
2019-03-21T03:31:48.206Z,0.00
2019-03-21T03:32:48.184Z,0.00
2019-03-21T03:33:48.170Z,0.00
2019-03-21T03:34:48.186Z,0.00
2019-03-21T03:35:48.154Z,0.00
2019-03-21T03:36:48.140Z,0.00
2019-03-21T03:37:48.130Z,0.00
2019-03-21T03:38:48.123Z,0.00
2019-03-21T03:39:48.115Z,0.00
2019-03-21T03:40:48.105Z,0.00
2019-03-21T03:41:48.087Z,0.00
2019-03-21T03:42:48.100Z,0.00
2019-03-21T03:43:48.057Z,0.00
2019-03-21T03:44:48.056Z,0.00
2019-03-21T03:45:48.046Z,0.00
2019-03-21T03:46:48.041Z,0.00
2019-03-21T03:47:48.011Z,0.00
2019-03-21T03:48:48.003Z,0.00
2019-03-21T03:49:47.997Z,0.00
2019-03-21T03:50:47.993Z,0.00
2019-03-21T03:51:47.985Z,0.00
2019-03-21T03:52:48.061Z,0.00
2019-03-21T03:53:47.954Z,0.00
2019-03-21T03:54:47.938Z,0.00
2019-03-21T03:55:47.950Z,0.00
2019-03-21T03:56:47.925Z,0.00
2019-03-21T03:57:47.923Z,0.00
2019-03-21T03:58:47.897Z,0.00
2019-03-21T03:59:47.889Z,0.00
2019-03-21T04:00:47.881Z,0.00
2019-03-21T04:01:47.862Z,0.00
2019-03-21T04:02:47.859Z,0.00
2019-03-21T04:03:47.847Z,0.00
2019-03-21T04:04:47.836Z,0.00
2019-03-21T04:05:47.835Z,0.00
2019-03-21T04:06:47.812Z,0.00
2019-03-21T04:07:47.796Z,0.00
2019-03-21T04:08:47.792Z,0.00
2019-03-21T04:09:47.820Z,0.00
2019-03-21T04:10:47.774Z,0.00
2019-03-21T04:11:47.752Z,0.00
2019-03-21T04:12:47.740Z,0.00
2019-03-21T04:13:47.730Z,0.00
2019-03-21T04:14:47.729Z,0.00
2019-03-21T04:15:53.168Z,0.00
2019-03-21T04:16:48.701Z,0.00
2019-03-21T04:17:47.692Z,0.00
2019-03-21T04:18:47.727Z,0.00
2019-03-21T04:19:47.667Z,0.00
2019-03-21T04:20:47.653Z,0.00
2019-03-21T04:21:47.651Z,0.00
2019-03-21T04:22:47.631Z,0.00
2019-03-21T04:23:47.632Z,0.00
2019-03-21T04:24:47.609Z,0.00
2019-03-21T04:25:47.609Z,0.00
2019-03-21T04:26:47.586Z,0.00
2019-03-21T04:27:47.579Z,0.00
2019-03-21T04:28:47.587Z,0.00
2019-03-21T04:29:47.558Z,0.00
2019-03-21T04:30:47.549Z,0.00
2019-03-21T04:31:47.532Z,0.00
2019-03-21T04:32:47.529Z,0.00
2019-03-21T04:33:47.513Z,0.00
2019-03-21T04:34:47.515Z,0.00
2019-03-21T04:35:47.495Z,0.00
2019-03-21T04:36:47.502Z,0.00
2019-03-21T04:37:47.468Z,0.00
2019-03-21T04:38:47.466Z,0.00
2019-03-21T04:39:47.472Z,0.00
2019-03-21T04:40:47.434Z,0.00
2019-03-21T04:41:47.436Z,0.00
2019-03-21T04:42:47.412Z,0.00
2019-03-21T04:43:47.406Z,0.00
2019-03-21T04:44:47.391Z,0.00
2019-03-21T04:45:47.383Z,0.00
2019-03-21T04:46:47.391Z,0.00
2019-03-21T04:47:47.357Z,0.00
2019-03-21T04:48:47.348Z,0.00
2019-03-21T04:49:47.338Z,0.00
2019-03-21T04:50:47.328Z,0.00
2019-03-21T04:51:47.324Z,0.00
2019-03-21T04:52:47.318Z,0.00
2019-03-21T04:53:47.296Z,0.00
2019-03-21T04:54:47.287Z,0.00
2019-03-21T04:55:47.276Z,0.00
2019-03-21T04:56:47.266Z,0.00
2019-03-21T04:57:47.262Z,0.00
2019-03-21T04:58:47.241Z,0.00
2019-03-21T04:59:47.224Z,0.00
2019-03-21T05:00:47.219Z,0.00
2019-03-21T05:01:47.202Z,0.00
2019-03-21T05:02:47.208Z,0.00
2019-03-21T05:03:47.186Z,0.00
2019-03-21T05:04:47.193Z,0.00
2019-03-21T05:05:47.161Z,5.62
2019-03-21T05:06:47.154Z,5.62
2019-03-21T05:07:47.141Z,5.62
2019-03-21T05:08:47.159Z,5.62
2019-03-21T05:09:47.119Z,5.62
2019-03-21T05:10:47.107Z,5.62
2019-03-21T05:11:47.114Z,5.62
2019-03-21T05:12:47.084Z,5.62
2019-03-21T05:13:47.078Z,5.62
2019-03-21T05:14:47.073Z,5.62
2019-03-21T05:15:47.046Z,5.62
2019-03-21T05:16:47.040Z,5.62
2019-03-21T05:17:47.027Z,11.25
2019-03-21T05:18:47.042Z,11.25
2019-03-21T05:19:47.009Z,11.25
2019-03-21T05:20:46.999Z,11.25
2019-03-21T05:21:46.991Z,11.25
2019-03-21T05:22:46.968Z,11.25
2019-03-21T05:23:46.960Z,16.88
2019-03-21T05:24:46.964Z,16.88
2019-03-21T05:25:46.943Z,16.88
2019-03-21T05:26:46.937Z,22.50
2019-03-21T05:27:46.914Z,22.50
2019-03-21T05:28:46.905Z,22.50
2019-03-21T05:29:46.891Z,28.12
2019-03-21T05:30:46.889Z,28.12
2019-03-21T05:31:46.878Z,28.12
2019-03-21T05:32:46.863Z,28.12
2019-03-21T05:33:46.848Z,33.75
2019-03-21T05:34:46.841Z,33.75
2019-03-21T05:35:46.838Z,33.75
2019-03-21T05:36:46.819Z,33.75
2019-03-21T05:37:46.809Z,39.38
2019-03-21T05:38:46.797Z,39.38
2019-03-21T05:39:46.789Z,39.38
2019-03-21T05:40:46.791Z,45.00
2019-03-21T05:41:46.765Z,45.00
2019-03-21T05:42:46.750Z,45.00
2019-03-21T05:43:46.744Z,50.62
2019-03-21T05:44:46.743Z,50.62
2019-03-21T05:45:46.727Z,50.62
2019-03-21T05:46:46.713Z,56.25
2019-03-21T05:47:46.698Z,56.25
2019-03-21T05:48:46.689Z,61.88
2019-03-21T05:49:46.722Z,61.88
2019-03-21T05:50:46.663Z,61.88
2019-03-21T05:51:46.656Z,67.50
2019-03-21T05:52:46.645Z,67.50
2019-03-21T05:53:46.635Z,73.12
2019-03-21T05:54:46.622Z,73.12
2019-03-21T05:55:46.617Z,73.12
2019-03-21T05:56:46.635Z,73.12
2019-03-21T05:57:46.594Z,73.12
2019-03-21T05:58:46.580Z,78.75
2019-03-21T05:59:46.578Z,84.38
2019-03-21T06:00:46.560Z,84.38
2019-03-21T06:01:46.549Z,84.38
2019-03-21T06:02:46.583Z,84.38
2019-03-21T06:03:46.557Z,90.00
2019-03-21T06:04:46.510Z,95.62
2019-03-21T06:05:46.505Z,95.62
2019-03-21T06:06:46.494Z,95.62
2019-03-21T06:07:46.484Z,101.25
2019-03-21T06:08:46.475Z,101.25
2019-03-21T06:09:46.455Z,101.25
2019-03-21T06:10:46.450Z,106.88
2019-03-21T06:11:46.453Z,106.88
2019-03-21T06:12:46.430Z,106.88
2019-03-21T06:13:46.413Z,112.50
2019-03-21T06:14:46.408Z,112.50
2019-03-21T06:15:46.395Z,112.50
2019-03-21T06:16:46.418Z,112.50
2019-03-21T06:17:46.383Z,112.50
2019-03-21T06:18:46.357Z,112.50
2019-03-21T06:19:46.356Z,118.12
2019-03-21T06:20:46.354Z,123.75
2019-03-21T06:21:46.328Z,123.75
2019-03-21T06:22:46.336Z,123.75
2019-03-21T06:23:46.309Z,129.38
2019-03-21T06:24:46.299Z,129.38
2019-03-21T06:25:46.286Z,135.00
2019-03-21T06:26:46.277Z,135.00
2019-03-21T06:27:46.289Z,135.00
2019-03-21T06:28:46.255Z,140.62
2019-03-21T06:29:46.257Z,140.62
2019-03-21T06:30:46.232Z,140.62
2019-03-21T06:31:46.222Z,140.62
2019-03-21T06:32:46.252Z,135.00
2019-03-21T06:33:46.202Z,140.62
2019-03-21T06:34:46.199Z,146.25
2019-03-21T06:35:46.184Z,151.88
2019-03-21T06:36:46.169Z,157.50
2019-03-21T06:37:46.160Z,157.50
2019-03-21T06:38:46.181Z,163.12
2019-03-21T06:39:46.175Z,168.75
2019-03-21T06:40:46.121Z,174.38
2019-03-21T06:41:46.120Z,174.38
2019-03-21T06:42:46.121Z,180.00
2019-03-21T06:43:46.089Z,174.38
2019-03-21T06:44:46.119Z,180.00
2019-03-21T06:45:48.191Z,185.62
2019-03-21T06:46:49.790Z,191.25
2019-03-21T06:47:46.052Z,196.88
2019-03-21T06:48:46.035Z,202.50
2019-03-21T06:49:46.624Z,213.75
2019-03-21T06:50:46.032Z,219.38
2019-03-21T06:51:46.006Z,225.00
2019-03-21T06:52:45.992Z,230.62
2019-03-21T06:53:45.985Z,236.25
2019-03-21T06:54:45.968Z,236.25
2019-03-21T06:55:45.990Z,230.62
2019-03-21T06:56:45.951Z,225.00
2019-03-21T06:57:45.935Z,213.75
2019-03-21T06:58:45.925Z,213.75
2019-03-21T06:59:45.926Z,213.75
2019-03-21T07:00:45.908Z,213.75
2019-03-21T07:01:45.913Z,213.75
2019-03-21T07:02:45.881Z,219.38
2019-03-21T07:03:45.870Z,219.38
2019-03-21T07:04:45.864Z,219.38
2019-03-21T07:05:45.862Z,219.38
2019-03-21T07:06:45.853Z,230.62
2019-03-21T07:07:45.827Z,236.25
2019-03-21T07:08:45.815Z,241.88
2019-03-21T07:09:45.818Z,247.50
2019-03-21T07:10:45.799Z,247.50
2019-03-21T07:11:45.788Z,247.50
2019-03-21T07:12:45.798Z,253.12
2019-03-21T07:13:45.765Z,270.00
2019-03-21T07:14:45.754Z,275.62
2019-03-21T07:15:45.743Z,275.62
2019-03-21T07:16:45.732Z,275.62
2019-03-21T07:17:45.720Z,292.50
2019-03-21T07:18:45.742Z,292.50
2019-03-21T07:19:45.698Z,286.88
2019-03-21T07:20:45.682Z,281.25
2019-03-21T07:21:45.677Z,270.00
2019-03-21T07:22:45.673Z,264.38
2019-03-21T07:23:45.657Z,264.38
2019-03-21T07:24:45.652Z,270.00
2019-03-21T07:25:45.624Z,270.00
2019-03-21T07:26:45.613Z,270.00
2019-03-21T07:27:45.601Z,281.25
2019-03-21T07:28:45.621Z,298.12
2019-03-21T07:29:45.581Z,309.38
2019-03-21T07:30:45.617Z,315.00
2019-03-21T07:31:45.554Z,315.00
2019-03-21T07:32:45.546Z,315.00
2019-03-21T07:33:45.537Z,303.75
2019-03-21T07:34:45.543Z,298.12
2019-03-21T07:35:45.532Z,286.88
2019-03-21T07:36:45.496Z,281.25
2019-03-21T07:37:45.491Z,275.62
2019-03-21T07:38:45.476Z,275.62
2019-03-21T07:39:45.486Z,270.00
2019-03-21T07:40:45.463Z,270.00
2019-03-21T07:41:45.459Z,275.62
2019-03-21T07:42:45.429Z,270.00
2019-03-21T07:43:45.425Z,270.00
2019-03-21T07:44:45.425Z,270.00
2019-03-21T07:45:45.400Z,264.38
2019-03-21T07:46:45.393Z,270.00
2019-03-21T07:47:45.377Z,270.00
2019-03-21T07:48:45.360Z,281.25
2019-03-21T07:49:45.348Z,281.25
2019-03-21T07:50:45.355Z,281.25
2019-03-21T07:51:45.455Z,281.25
2019-03-21T07:52:45.318Z,275.62
2019-03-21T07:53:45.310Z,281.25
2019-03-21T07:54:45.316Z,281.25
2019-03-21T07:55:45.283Z,281.25
2019-03-21T07:56:45.274Z,286.88
2019-03-21T07:57:45.300Z,298.12
2019-03-21T07:58:45.251Z,309.38
2019-03-21T07:59:45.252Z,320.62
2019-03-21T08:00:45.228Z,343.12
2019-03-21T08:01:45.214Z,365.62
2019-03-21T08:02:45.204Z,376.88
2019-03-21T08:03:45.212Z,388.12
2019-03-21T08:04:45.183Z,382.50
2019-03-21T08:05:45.173Z,388.12
2019-03-21T08:06:45.161Z,382.50
2019-03-21T08:07:45.168Z,365.62
2019-03-21T08:08:45.137Z,348.75
2019-03-21T08:09:45.121Z,337.50
2019-03-21T08:10:45.115Z,326.25
2019-03-21T08:11:45.097Z,326.25
2019-03-21T08:12:45.219Z,315.00
2019-03-21T08:13:45.080Z,309.38
2019-03-21T08:14:45.082Z,309.38
2019-03-21T08:15:45.053Z,309.38
2019-03-21T08:16:45.048Z,309.38
2019-03-21T08:17:45.086Z,303.75
2019-03-21T08:18:45.057Z,303.75
2019-03-21T08:19:45.005Z,303.75
2019-03-21T08:20:55.670Z,309.38
2019-03-21T08:21:45.984Z,320.62
2019-03-21T08:22:44.982Z,331.88
2019-03-21T08:23:44.964Z,331.88
2019-03-21T08:24:44.962Z,337.50
2019-03-21T08:25:44.944Z,348.75
2019-03-21T08:26:45.707Z,365.62
2019-03-21T08:27:44.919Z,382.50
2019-03-21T08:28:44.903Z,393.75
2019-03-21T08:29:44.929Z,399.38
2019-03-21T08:30:44.893Z,410.62
2019-03-21T08:31:44.884Z,433.12
2019-03-21T08:32:44.862Z,455.62
2019-03-21T08:33:44.846Z,461.25
2019-03-21T08:34:44.836Z,455.62
2019-03-21T08:35:44.837Z,450.00
2019-03-21T08:36:44.825Z,455.62
2019-03-21T08:37:44.816Z,466.88
2019-03-21T08:38:44.791Z,472.50
2019-03-21T08:39:44.779Z,472.50
2019-03-21T08:40:44.801Z,461.25
2019-03-21T08:41:44.822Z,461.25
2019-03-21T08:42:44.755Z,472.50
2019-03-21T08:43:44.751Z,489.38
2019-03-21T08:44:44.724Z,478.12
2019-03-21T08:45:44.714Z,461.25
2019-03-21T08:46:44.703Z,455.62
2019-03-21T08:47:44.697Z,450.00
2019-03-21T08:48:44.690Z,433.12
2019-03-21T08:49:44.669Z,416.25
2019-03-21T08:50:44.659Z,416.25
2019-03-21T08:51:44.668Z,399.38
2019-03-21T08:52:44.641Z,365.62
2019-03-21T08:53:44.649Z,365.62
2019-03-21T08:54:44.618Z,405.00
2019-03-21T08:55:44.600Z,410.62
2019-03-21T08:56:44.606Z,416.25
2019-03-21T08:57:44.595Z,433.12
2019-03-21T08:58:44.572Z,438.75
2019-03-21T08:59:44.557Z,444.38
2019-03-21T09:00:44.552Z,450.00
2019-03-21T09:01:44.537Z,455.62
2019-03-21T09:02:44.529Z,495.00
2019-03-21T09:03:44.520Z,517.50
2019-03-21T09:04:44.511Z,528.75
2019-03-21T09:05:44.489Z,540.00
2019-03-21T09:06:44.496Z,562.50
2019-03-21T09:07:44.473Z,579.38
2019-03-21T09:08:44.480Z,556.88
2019-03-21T09:09:44.454Z,534.38
2019-03-21T09:10:44.447Z,528.75
2019-03-21T09:11:44.442Z,511.88
2019-03-21T09:12:44.416Z,506.25
2019-03-21T09:13:44.419Z,523.12
2019-03-21T09:14:44.388Z,551.25
2019-03-21T09:15:44.382Z,573.75
2019-03-21T09:16:44.374Z,590.62
2019-03-21T09:17:44.357Z,596.25
2019-03-21T09:18:44.360Z,613.12
2019-03-21T09:19:44.346Z,652.50
2019-03-21T09:20:44.323Z,663.75
2019-03-21T09:21:44.338Z,658.12
2019-03-21T09:22:44.304Z,669.38
2019-03-21T09:23:44.310Z,686.25
2019-03-21T09:24:44.283Z,669.38
2019-03-21T09:25:44.267Z,641.25
2019-03-21T09:26:44.683Z,613.12
2019-03-21T09:27:44.262Z,613.12
2019-03-21T09:28:44.236Z,635.62
2019-03-21T09:29:53.041Z,646.88
2019-03-21T09:30:45.215Z,641.25
2019-03-21T09:31:44.219Z,630.00
2019-03-21T09:32:44.189Z,607.50
2019-03-21T09:33:44.177Z,579.38
2019-03-21T09:34:44.182Z,545.62
2019-03-21T09:35:44.154Z,534.38
2019-03-21T09:36:44.147Z,511.88
2019-03-21T09:37:44.135Z,506.25
2019-03-21T09:38:44.128Z,556.88
2019-03-21T09:39:44.120Z,618.75
2019-03-21T09:40:44.104Z,652.50
2019-03-21T09:41:44.108Z,646.88
2019-03-21T09:42:44.093Z,646.88
2019-03-21T09:43:44.076Z,652.50
2019-03-21T09:44:44.055Z,624.38
2019-03-21T09:45:44.047Z,630.00
2019-03-21T09:46:50.811Z,641.25
2019-03-21T09:47:45.023Z,658.12
2019-03-21T09:48:44.023Z,675.00
2019-03-21T09:49:44.010Z,691.88
2019-03-21T09:50:44.001Z,686.25
2019-03-21T09:51:43.975Z,675.00
2019-03-21T09:52:43.973Z,641.25
2019-03-21T09:53:43.992Z,601.88
2019-03-21T09:54:43.942Z,590.62
2019-03-21T09:55:43.950Z,590.62
2019-03-21T09:56:43.925Z,585.00
2019-03-21T09:57:43.908Z,573.75
2019-03-21T09:58:43.909Z,601.88
2019-03-21T09:59:43.899Z,635.62
2019-03-21T10:00:43.877Z,646.88
2019-03-21T10:01:43.873Z,624.38
2019-03-21T10:02:43.855Z,618.75
2019-03-21T10:03:43.846Z,618.75
2019-03-21T10:04:43.853Z,607.50
2019-03-21T10:05:43.843Z,618.75
2019-03-21T10:06:43.818Z,618.75
2019-03-21T10:07:43.811Z,601.88
2019-03-21T10:08:43.800Z,601.88
2019-03-21T10:09:43.797Z,635.62
2019-03-21T10:10:43.763Z,646.88
2019-03-21T10:11:43.765Z,607.50
2019-03-21T10:12:43.785Z,562.50
2019-03-21T10:13:43.730Z,545.62
2019-03-21T10:14:43.725Z,534.38
2019-03-21T10:15:43.716Z,511.88
2019-03-21T10:16:43.703Z,495.00
2019-03-21T10:17:43.739Z,489.38
2019-03-21T10:18:43.695Z,500.62
2019-03-21T10:19:43.672Z,500.62
2019-03-21T10:20:43.656Z,500.62
2019-03-21T10:21:43.934Z,489.38
2019-03-21T10:22:43.630Z,506.25
2019-03-21T10:23:43.623Z,540.00
2019-03-21T10:24:43.619Z,545.62
2019-03-21T10:25:43.603Z,551.25
2019-03-21T10:26:43.862Z,528.75
2019-03-21T10:27:43.578Z,517.50
2019-03-21T10:28:43.569Z,511.88
2019-03-21T10:29:43.572Z,511.88
2019-03-21T10:30:43.540Z,528.75
2019-03-21T10:31:43.557Z,573.75
2019-03-21T10:32:43.520Z,596.25
2019-03-21T10:33:43.513Z,573.75
2019-03-21T10:34:43.510Z,545.62
2019-03-21T10:35:43.499Z,534.38
2019-03-21T10:36:43.484Z,556.88
2019-03-21T10:37:43.467Z,596.25
2019-03-21T10:38:43.468Z,618.75
2019-03-21T10:39:43.444Z,618.75
2019-03-21T10:40:43.433Z,585.00
2019-03-21T10:41:43.417Z,568.12
2019-03-21T10:42:43.411Z,585.00
2019-03-21T10:43:43.407Z,590.62
2019-03-21T10:44:43.387Z,579.38
2019-03-21T10:45:43.384Z,562.50
2019-03-21T10:46:43.366Z,540.00
2019-03-21T10:47:43.356Z,556.88
2019-03-21T10:48:43.347Z,585.00
2019-03-21T10:49:43.336Z,585.00
2019-03-21T10:50:43.325Z,568.12
2019-03-21T10:51:54.090Z,556.88
2019-03-21T10:52:44.303Z,562.50
2019-03-21T10:53:43.287Z,562.50
2019-03-21T10:54:43.289Z,568.12
2019-03-21T10:55:43.282Z,568.12
2019-03-21T10:56:43.250Z,568.12
2019-03-21T10:57:43.244Z,590.62
2019-03-21T10:58:43.236Z,613.12
2019-03-21T10:59:43.227Z,635.62
2019-03-21T11:00:43.208Z,635.62
2019-03-21T11:01:43.206Z,624.38
2019-03-21T11:02:43.182Z,596.25
2019-03-21T11:03:43.173Z,585.00
2019-03-21T11:04:43.169Z,573.75
2019-03-21T11:05:43.152Z,562.50
2019-03-21T11:06:43.147Z,545.62
2019-03-21T11:07:43.142Z,534.38
2019-03-21T11:08:43.121Z,528.75
2019-03-21T11:09:43.110Z,528.75
2019-03-21T11:10:43.102Z,573.75
2019-03-21T11:11:43.106Z,624.38
2019-03-21T11:12:43.075Z,652.50
2019-03-21T11:13:43.075Z,630.00
2019-03-21T11:14:43.053Z,585.00
2019-03-21T11:15:43.041Z,573.75
2019-03-21T11:16:43.042Z,573.75
2019-03-21T11:17:43.056Z,556.88
2019-03-21T11:18:43.012Z,540.00
2019-03-21T11:19:42.992Z,540.00
2019-03-21T11:20:42.981Z,568.12
2019-03-21T11:21:42.976Z,607.50
2019-03-21T11:22:42.975Z,641.25
2019-03-21T11:23:42.963Z,646.88
2019-03-21T11:24:42.942Z,613.12
2019-03-21T11:25:42.934Z,590.62
2019-03-21T11:26:42.915Z,579.38
2019-03-21T11:27:42.924Z,573.75
2019-03-21T11:28:42.905Z,573.75
2019-03-21T11:29:42.882Z,579.38
2019-03-21T11:30:42.894Z,590.62
2019-03-21T11:31:42.866Z,590.62
2019-03-21T11:32:42.861Z,590.62
2019-03-21T11:33:42.841Z,590.62
2019-03-21T11:34:42.846Z,585.00
2019-03-21T11:35:42.821Z,607.50
2019-03-21T11:36:42.804Z,624.38
2019-03-21T11:37:42.802Z,630.00
2019-03-21T11:38:42.787Z,607.50
2019-03-21T11:39:42.789Z,596.25
2019-03-21T11:40:42.758Z,607.50
2019-03-21T11:41:42.751Z,624.38
2019-03-21T11:42:42.741Z,624.38
2019-03-21T11:43:42.733Z,613.12
2019-03-21T11:44:42.731Z,618.75
2019-03-21T11:45:42.727Z,630.00
2019-03-21T11:46:42.694Z,641.25
2019-03-21T11:47:42.701Z,663.75
2019-03-21T11:48:42.675Z,703.12
2019-03-21T11:49:42.685Z,720.00
2019-03-21T11:50:42.656Z,703.12
2019-03-21T11:51:42.635Z,680.62
2019-03-21T11:52:42.624Z,669.38
2019-03-21T11:53:42.642Z,658.12
2019-03-21T11:54:42.604Z,646.88
2019-03-21T11:55:42.610Z,624.38
2019-03-21T11:56:42.597Z,601.88
2019-03-21T11:57:42.574Z,596.25
2019-03-21T11:58:42.565Z,579.38
2019-03-21T11:59:51.430Z,579.38
2019-03-21T12:00:45.186Z,585.00
2019-03-21T12:01:42.554Z,585.00
2019-03-21T12:02:42.524Z,573.75
2019-03-21T12:03:42.508Z,562.50
2019-03-21T12:04:42.495Z,551.25
2019-03-21T12:05:42.483Z,540.00
2019-03-21T12:06:42.487Z,545.62
2019-03-21T12:07:42.516Z,562.50
2019-03-21T12:08:42.446Z,556.88
2019-03-21T12:09:42.437Z,556.88
2019-03-21T12:10:42.432Z,556.88
2019-03-21T12:11:42.418Z,568.12
2019-03-21T12:12:42.407Z,596.25
2019-03-21T12:13:42.391Z,624.38
2019-03-21T12:14:42.395Z,641.25
2019-03-21T12:15:42.374Z,652.50
2019-03-21T12:16:42.361Z,652.50
2019-03-21T12:17:42.358Z,669.38
2019-03-21T12:18:42.342Z,675.00
2019-03-21T12:19:42.340Z,691.88
2019-03-21T12:20:42.312Z,691.88
2019-03-21T12:21:42.308Z,703.12
2019-03-21T12:22:42.290Z,714.38
2019-03-21T12:23:42.286Z,725.62
2019-03-21T12:24:42.275Z,736.88
2019-03-21T12:25:42.258Z,742.50
2019-03-21T12:26:42.248Z,736.88
2019-03-21T12:27:42.238Z,731.25
2019-03-21T12:28:42.226Z,714.38
2019-03-21T12:29:42.224Z,703.12
2019-03-21T12:30:42.205Z,703.12
2019-03-21T12:31:42.200Z,714.38
2019-03-21T12:32:42.256Z,708.75
2019-03-21T12:33:42.180Z,680.62
2019-03-21T12:34:42.159Z,669.38
2019-03-21T12:35:42.148Z,669.38
2019-03-21T12:36:42.137Z,675.00
2019-03-21T12:37:42.129Z,669.38
2019-03-21T12:38:42.158Z,669.38
2019-03-21T12:39:42.107Z,663.75
2019-03-21T12:40:42.093Z,663.75
2019-03-21T12:41:42.079Z,652.50
2019-03-21T12:42:42.067Z,658.12
2019-03-21T12:43:42.060Z,675.00
2019-03-21T12:44:42.053Z,680.62
2019-03-21T12:45:42.036Z,675.00
2019-03-21T12:46:42.020Z,658.12
2019-03-21T12:47:42.025Z,635.62
2019-03-21T12:48:42.001Z,618.75
2019-03-21T12:49:42.023Z,613.12